createdAt,value
2023-02-19T00:00:26.248Z,100943.66
2023-02-19T00:03:12.954Z,100941.72
2023-02-19T00:06:02.898Z,100940.06
2023-02-19T00:08:51.123Z,100941.88
2023-02-19T00:11:38.805Z,100939.09
2023-02-19T00:14:25.315Z,100945.91
2023-02-19T00:17:12.175Z,100945.16
2023-02-19T00:19:59.130Z,100947.75
2023-02-19T00:22:47.638Z,100944.41
2023-02-19T00:25:38.937Z,100938.41
2023-02-19T00:28:25.623Z,100942.63
2023-02-19T00:31:17.894Z,100939.13
2023-02-19T00:34:07.135Z,100923.94
2023-02-19T00:36:53.707Z,100933.56
2023-02-19T00:39:40.540Z,100930.78
2023-02-19T00:42:29.822Z,100926.47
2023-02-19T00:45:27.811Z,100934.44
2023-02-19T00:48:18.248Z,100927.44
2023-02-19T00:51:07.073Z,100935.53
2023-02-19T00:53:57.151Z,100931.16
2023-02-19T00:56:46.257Z,100925.94
2023-02-19T00:59:37.748Z,100932.31
2023-02-19T01:02:27.587Z,100931.34
2023-02-19T01:05:34.092Z,100922.56
2023-02-19T01:08:22.834Z,100920.06
2023-02-19T01:11:14.180Z,100916.69
2023-02-19T01:14:02.233Z,100914.81
2023-02-19T01:16:50.337Z,100910.28
2023-02-19T01:19:37.267Z,100906.63
2023-02-19T01:22:23.927Z,100907.34
2023-02-19T01:25:11.245Z,100914.72
2023-02-19T01:27:58.204Z,100894.63
2023-02-19T01:30:44.912Z,100898.19
2023-02-19T01:33:33.822Z,100892.94
2023-02-19T01:36:20.768Z,100892.97
2023-02-19T01:39:07.986Z,100869.50
2023-02-19T01:41:54.305Z,100884.22
2023-02-19T01:45:22.673Z,100887.66
2023-02-19T01:48:13.408Z,100889.34
2023-02-19T01:51:07.038Z,100890.47
2023-02-19T01:53:58.607Z,100889.53
2023-02-19T01:56:47.701Z,100884.38
2023-02-19T01:59:35.337Z,100871.31
2023-02-19T02:02:22.008Z,100872.16
2023-02-19T02:05:14.775Z,100866.03
2023-02-19T02:08:22.264Z,100868.91
2023-02-19T02:11:09.902Z,100851.47
2023-02-19T02:13:58.068Z,100767.78
2023-02-19T02:16:55.714Z,100830.00
2023-02-19T02:20:15.357Z,100836.50
2023-02-19T02:23:16.034Z,100835.59
2023-02-19T02:26:18.087Z,100829.38
2023-02-19T02:29:28.216Z,100835.63
2023-02-19T02:32:21.515Z,100809.50
2023-02-19T02:35:11.242Z,100833.91
2023-02-19T02:38:03.464Z,100839.38
2023-02-19T02:40:52.430Z,100838.47
2023-02-19T02:43:39.040Z,100838.59
2023-02-19T02:46:31.125Z,100827.19
2023-02-19T02:49:24.725Z,100842.91
2023-02-19T02:52:37.271Z,100841.13
2023-02-19T02:55:24.936Z,100836.56
2023-02-19T02:58:13.100Z,100839.91
2023-02-19T03:01:22.874Z,100850.47
2023-02-19T03:04:15.200Z,100858.31
2023-02-19T03:07:06.636Z,100856.69
2023-02-19T03:09:56.243Z,100853.94
2023-02-19T03:13:03.010Z,100852.03
2023-02-19T03:16:15.282Z,100860.00
2023-02-19T03:19:20.656Z,100856.56
2023-02-19T03:22:14.245Z,100827.84
2023-02-19T03:25:22.756Z,100861.91
2023-02-19T03:28:12.306Z,100860.31
2023-02-19T03:30:58.961Z,100863.63
2023-02-19T03:33:48.861Z,100859.34
2023-02-19T03:36:40.908Z,100857.47
2023-02-19T03:39:29.403Z,100855.81
2023-02-19T03:42:24.269Z,100864.78
2023-02-19T03:45:29.080Z,100870.81
2023-02-19T03:48:25.811Z,100868.22
2023-02-19T03:51:28.790Z,100872.72
2023-02-19T03:54:21.897Z,100876.44
2023-02-19T03:57:18.551Z,100886.22
2023-02-19T04:00:10.353Z,100879.28
2023-02-19T04:03:08.602Z,100878.59
2023-02-19T04:06:00.305Z,100876.78
2023-02-19T04:08:51.277Z,100881.22
2023-02-19T04:11:39.924Z,100883.25
2023-02-19T04:14:37.562Z,100876.19
2023-02-19T04:17:27.743Z,100879.75
2023-02-19T04:20:15.695Z,100880.53
2023-02-19T04:23:02.453Z,100886.53
2023-02-19T04:25:53.593Z,100889.59
2023-02-19T04:28:40.807Z,100896.38
2023-02-19T04:31:31.205Z,100899.91
2023-02-19T04:34:18.165Z,100899.94
2023-02-19T04:37:05.065Z,100902.75
2023-02-19T04:39:51.690Z,100903.53
2023-02-19T04:42:38.367Z,100898.31
2023-02-19T04:45:25.040Z,100904.75
2023-02-19T04:48:13.284Z,100902.72
2023-02-19T04:51:00.017Z,100907.03
2023-02-19T04:53:48.345Z,100905.25
2023-02-19T04:56:35.398Z,100914.91
2023-02-19T04:59:22.877Z,100911.50
2023-02-19T05:02:13.018Z,100909.63
2023-02-19T05:05:02.012Z,100904.34
2023-02-19T05:07:48.746Z,100912.25
2023-02-19T05:10:35.918Z,100919.22
2023-02-19T05:13:23.723Z,100918.31
2023-02-19T05:16:14.014Z,100904.38
2023-02-19T05:19:00.865Z,100892.13
2023-02-19T05:21:48.802Z,100892.91
2023-02-19T05:24:35.416Z,100909.53
2023-02-19T05:27:22.033Z,100906.03
2023-02-19T05:30:10.023Z,100906.84
2023-02-19T05:32:56.691Z,100906.91
2023-02-19T05:35:44.817Z,100892.28
2023-02-19T05:38:32.802Z,100897.47
2023-02-19T05:41:21.662Z,100893.41
2023-02-19T05:44:08.097Z,100895.88
2023-02-19T05:46:54.830Z,100895.03
2023-02-19T05:49:41.741Z,100895.13
2023-02-19T05:52:28.455Z,100886.25
2023-02-19T05:55:16.672Z,100893.16
2023-02-19T05:58:03.185Z,100887.91
2023-02-19T06:00:50.170Z,100895.97
2023-02-19T06:03:36.821Z,100889.91
2023-02-19T06:06:25.071Z,100892.31
2023-02-19T06:09:11.872Z,100897.53
2023-02-19T06:11:59.779Z,100902.75
2023-02-19T06:14:46.549Z,100912.41
2023-02-19T06:17:33.781Z,100914.22
2023-02-19T06:20:20.854Z,100910.81
2023-02-19T06:23:07.373Z,100914.28
2023-02-19T06:25:54.083Z,100917.72
2023-02-19T06:28:43.353Z,100910.06
2023-02-19T06:31:30.093Z,100916.84
2023-02-19T06:34:16.691Z,100929.13
2023-02-19T06:37:03.799Z,100927.22
2023-02-19T06:39:51.146Z,100932.50
2023-02-19T06:42:37.492Z,100942.19
2023-02-19T06:45:25.710Z,100953.59
2023-02-19T06:48:12.618Z,100955.31
2023-02-19T06:50:59.556Z,100964.13
2023-02-19T06:53:46.484Z,100972.75
2023-02-19T06:56:34.888Z,100978.06
2023-02-19T06:59:21.567Z,100985.84
2023-02-19T07:02:12.200Z,100990.31
2023-02-19T07:04:58.692Z,100998.06
2023-02-19T07:07:46.820Z,101001.66
2023-02-19T07:10:33.407Z,100998.94
2023-02-19T07:13:20.089Z,101002.44
2023-02-19T07:16:08.947Z,101003.34
2023-02-19T07:18:58.996Z,101017.25
2023-02-19T07:21:45.775Z,101020.63
2023-02-19T07:24:32.597Z,101024.25
2023-02-19T07:27:19.447Z,101024.16
2023-02-19T07:30:06.802Z,101029.25
2023-02-19T07:32:53.557Z,101038.16
2023-02-19T07:35:47.037Z,101036.19
2023-02-19T07:38:33.356Z,101029.94
2023-02-19T07:41:20.164Z,101042.03
2023-02-19T07:44:07.368Z,101037.88
2023-02-19T07:46:54.194Z,101049.19
2023-02-19T07:49:40.988Z,101057.97
2023-02-19T07:52:29.431Z,101056.06
2023-02-19T07:55:16.607Z,101065.84
2023-02-19T07:58:05.865Z,101073.03
2023-02-19T08:00:52.788Z,101074.78
2023-02-19T08:03:39.164Z,101071.22
2023-02-19T08:06:25.789Z,101080.03
2023-02-19T08:09:14.036Z,101096.75
2023-02-19T08:12:18.116Z,101100.22
2023-02-19T08:15:05.284Z,101109.81
2023-02-19T08:17:51.831Z,101115.00
2023-02-19T08:20:38.730Z,101126.41
2023-02-19T08:23:26.402Z,101135.97
2023-02-19T08:26:15.053Z,101109.09
2023-02-19T08:29:02.093Z,101136.94
2023-02-19T08:31:48.720Z,101143.16
2023-02-19T08:34:35.278Z,101165.00
2023-02-19T08:37:22.116Z,101174.63
2023-02-19T08:40:09.543Z,101172.16
2023-02-19T08:42:57.608Z,101180.88
2023-02-19T08:45:47.415Z,101179.91
2023-02-19T08:48:34.032Z,101182.59
2023-02-19T08:51:20.774Z,101194.78
2023-02-19T08:54:08.641Z,101195.50
2023-02-19T08:56:55.282Z,101205.44
2023-02-19T08:59:43.436Z,101200.03
2023-02-19T09:02:30.270Z,101200.78
2023-02-19T09:05:17.827Z,101212.25
2023-02-19T09:08:04.763Z,101216.59
2023-02-19T09:10:59.125Z,101217.44
2023-02-19T09:13:45.951Z,101183.25
2023-02-19T09:16:33.636Z,101220.00
2023-02-19T09:19:20.427Z,101231.41
2023-02-19T09:22:07.483Z,101219.19
2023-02-19T09:24:54.206Z,101225.28
2023-02-19T09:27:41.180Z,101224.38
2023-02-19T09:30:27.949Z,101219.06
2023-02-19T09:33:15.917Z,101219.75
2023-02-19T09:36:03.478Z,101239.81
2023-02-19T09:38:50.657Z,101240.75
2023-02-19T09:41:41.626Z,101238.97
2023-02-19T09:44:33.451Z,101238.88
2023-02-19T09:47:25.161Z,101251.19
2023-02-19T09:50:21.520Z,101250.28
2023-02-19T09:53:16.839Z,101250.88
2023-02-19T09:56:03.797Z,101261.59
2023-02-19T09:58:53.351Z,101260.72
2023-02-19T10:01:41.860Z,101248.88
2023-02-19T10:04:28.841Z,101272.84
2023-02-19T10:07:20.300Z,101266.38
2023-02-19T10:10:26.026Z,101267.28
2023-02-19T10:13:19.566Z,101279.81
2023-02-19T10:16:10.910Z,101282.50
2023-02-19T10:18:57.716Z,101286.78
2023-02-19T10:21:45.622Z,101285.81
2023-02-19T10:24:33.512Z,101303.31
2023-02-19T10:27:20.189Z,101314.81
2023-02-19T10:30:08.499Z,101276.19
2023-02-19T10:33:04.680Z,101320.72
2023-02-19T10:35:57.330Z,101325.78
2023-02-19T10:38:48.830Z,101337.50
2023-02-19T10:41:44.329Z,101336.69
2023-02-19T10:44:36.539Z,101343.88
2023-02-19T10:47:25.312Z,101339.09
2023-02-19T10:50:21.726Z,101336.34
2023-02-19T10:53:22.060Z,101347.50
2023-02-19T10:56:10.700Z,101346.56
2023-02-19T10:59:16.325Z,101368.00
2023-02-19T11:02:06.544Z,101367.09
2023-02-19T11:05:20.087Z,101371.63
2023-02-19T11:08:06.645Z,101374.47
2023-02-19T11:10:53.327Z,101367.84
2023-02-19T11:13:43.542Z,101375.78
2023-02-19T11:16:42.469Z,101377.00
2023-02-19T11:19:37.590Z,101385.28
2023-02-19T11:22:33.217Z,101395.81
2023-02-19T11:25:25.561Z,101403.84
2023-02-19T11:28:25.103Z,101406.47
2023-02-19T11:31:22.962Z,101412.59
2023-02-19T11:34:31.156Z,101407.38
2023-02-19T11:37:19.710Z,101417.84
2023-02-19T11:40:06.909Z,101403.69
2023-02-19T11:43:02.510Z,101413.06
2023-02-19T11:45:59.704Z,101409.69
2023-02-19T11:49:04.689Z,101412.13
2023-02-19T11:52:09.010Z,101411.03
2023-02-19T11:55:03.632Z,101412.56
2023-02-19T11:58:03.554Z,101413.78
2023-02-19T12:00:59.470Z,101423.75
2023-02-19T12:04:05.456Z,101430.22
2023-02-19T12:07:04.769Z,101437.00
2023-02-19T12:10:02.863Z,101441.91
2023-02-19T12:13:01.654Z,101443.97
2023-02-19T12:16:20.816Z,101434.47
2023-02-19T12:19:43.383Z,101447.59
2023-02-19T12:22:33.175Z,101443.13
2023-02-19T12:25:29.735Z,101439.38
2023-02-19T12:28:36.657Z,101448.00
2023-02-19T12:31:44.215Z,101450.00
2023-02-19T12:35:21.497Z,101444.47
2023-02-19T12:38:29.988Z,101449.84
2023-02-19T12:41:25.840Z,101461.31
2023-02-19T12:44:16.830Z,101460.31
2023-02-19T12:47:06.654Z,101470.06
2023-02-19T12:50:03.496Z,101461.97
2023-02-19T12:52:55.058Z,101462.06
2023-02-19T12:55:45.540Z,101460.19
2023-02-19T12:58:39.008Z,101466.44
2023-02-19T13:01:29.368Z,101465.44
2023-02-19T13:04:23.918Z,101425.31
2023-02-19T13:07:14.166Z,101477.00
2023-02-19T13:10:25.868Z,101482.22
2023-02-19T13:13:18.669Z,101483.00
2023-02-19T13:16:09.906Z,101479.56
2023-02-19T13:19:00.086Z,101495.31
2023-02-19T13:22:10.229Z,101486.44
2023-02-19T13:24:57.958Z,101498.81
2023-02-19T13:28:05.365Z,101499.63
2023-02-19T13:31:13.983Z,101495.09
2023-02-19T13:34:11.699Z,101495.28
2023-02-19T13:36:59.823Z,101501.53
2023-02-19T13:39:50.081Z,101500.69
2023-02-19T13:42:38.044Z,101497.94
2023-02-19T13:45:33.188Z,101501.28
2023-02-19T13:48:30.746Z,101502.69
2023-02-19T13:51:51.183Z,101501.06
2023-02-19T13:54:40.356Z,101506.38
2023-02-19T13:57:29.854Z,101511.81
2023-02-19T14:00:49.468Z,101522.41
2023-02-19T14:03:54.209Z,101525.16
2023-02-19T14:07:13.837Z,101532.16
2023-02-19T14:10:01.892Z,101535.63
2023-02-19T14:12:50.927Z,101541.84
2023-02-19T14:15:44.336Z,101533.09
2023-02-19T14:18:45.758Z,101542.09
2023-02-19T14:21:39.299Z,101541.13
2023-02-19T14:24:26.293Z,101547.44
2023-02-19T14:27:12.958Z,101552.75
2023-02-19T14:29:59.826Z,101543.88
2023-02-19T14:32:51.022Z,101545.69
2023-02-19T14:35:41.541Z,101540.38
2023-02-19T14:38:33.731Z,101539.53
2023-02-19T14:41:23.107Z,101536.81
2023-02-19T14:44:18.073Z,101534.19
2023-02-19T14:47:07.630Z,101544.59
2023-02-19T14:49:58.911Z,101548.00
2023-02-19T14:52:49.163Z,101546.31
2023-02-19T14:55:40.082Z,101550.66
2023-02-19T14:58:31.658Z,101548.00
2023-02-19T15:01:27.906Z,101540.84
2023-02-19T15:04:23.327Z,101507.84
2023-02-19T15:07:15.311Z,101557.91
2023-02-19T15:10:06.019Z,101560.47
2023-02-19T15:12:57.114Z,101579.72
2023-02-19T15:15:46.750Z,101576.19
2023-02-19T15:18:36.632Z,101584.13
2023-02-19T15:21:25.917Z,101584.22
2023-02-19T15:24:15.364Z,101591.50
2023-02-19T15:27:02.160Z,101590.56
2023-02-19T15:29:53.802Z,101590.66
2023-02-19T15:32:40.748Z,101595.88
2023-02-19T15:35:28.740Z,101592.41
2023-02-19T15:38:16.021Z,101589.06
2023-02-19T15:41:02.841Z,101558.34
2023-02-19T15:43:54.344Z,101589.75
2023-02-19T15:46:45.413Z,101588.16
2023-02-19T15:49:45.083Z,101597.88
2023-02-19T15:52:40.152Z,101609.34
2023-02-19T15:55:34.721Z,101615.53
2023-02-19T15:58:28.924Z,101607.69
2023-02-19T16:01:21.843Z,101610.25
2023-02-19T16:04:14.981Z,101617.31
2023-02-19T16:07:04.293Z,101621.78
2023-02-19T16:09:50.913Z,101637.56
2023-02-19T16:12:52.807Z,101630.63
2023-02-19T16:15:41.368Z,101626.34
2023-02-19T16:18:33.466Z,101638.66
2023-02-19T16:21:25.181Z,101644.84
2023-02-19T16:24:19.911Z,101650.97
2023-02-19T16:27:07.879Z,101666.75
2023-02-19T16:29:54.889Z,101660.63
2023-02-19T16:32:41.732Z,101666.69
2023-02-19T16:35:39.820Z,101669.25
2023-02-19T16:38:28.024Z,101669.22
2023-02-19T16:41:16.498Z,101673.66
2023-02-19T16:44:31.029Z,101676.34
2023-02-19T16:47:36.713Z,101677.22
2023-02-19T16:50:26.894Z,101689.44
2023-02-19T16:53:20.641Z,101684.94
2023-02-19T16:56:14.665Z,101682.22
2023-02-19T16:59:01.143Z,101695.28
2023-02-19T17:01:47.928Z,101693.44
2023-02-19T17:04:35.402Z,101687.19
2023-02-19T17:07:22.448Z,101698.59
2023-02-19T17:10:10.083Z,101692.44
2023-02-19T17:12:58.118Z,101690.63
2023-02-19T17:15:44.792Z,101702.81
2023-02-19T17:18:31.676Z,101706.25
2023-02-19T17:21:21.748Z,101702.69
2023-02-19T17:24:08.562Z,101707.88
2023-02-19T17:26:55.083Z,101705.16
2023-02-19T17:29:43.249Z,101711.25
2023-02-19T17:32:30.145Z,101706.78
2023-02-19T17:35:17.278Z,101708.53
2023-02-19T17:38:09.529Z,101712.97
2023-02-19T17:40:56.288Z,101710.16
2023-02-19T17:43:43.100Z,101709.22
2023-02-19T17:46:31.200Z,101713.63
2023-02-19T17:49:17.827Z,101722.41
2023-02-19T17:52:04.721Z,101726.84
2023-02-19T17:54:51.488Z,101725.03
2023-02-19T17:57:38.122Z,101728.66
2023-02-19T18:00:27.464Z,101723.31
2023-02-19T18:03:15.725Z,101725.06
2023-02-19T18:06:02.849Z,101728.59
2023-02-19T18:08:51.277Z,101732.00
2023-02-19T18:11:38.076Z,101733.66
2023-02-19T18:14:24.857Z,101725.78
2023-02-19T18:17:11.541Z,101734.44
2023-02-19T18:19:59.699Z,101747.31
2023-02-19T18:22:46.698Z,101745.63
2023-02-19T18:25:33.647Z,101747.38
2023-02-19T18:28:20.450Z,101753.50
2023-02-19T18:31:07.705Z,101747.28
2023-02-19T18:33:54.309Z,101749.81
2023-02-19T18:36:45.572Z,101668.00
2023-02-19T18:39:32.020Z,101746.31
2023-02-19T18:42:19.275Z,101736.66
2023-02-19T18:45:06.350Z,101748.94
2023-02-19T18:47:52.851Z,101745.34
2023-02-19T18:50:39.629Z,101739.31
2023-02-19T18:53:29.013Z,101745.47
2023-02-19T18:56:17.449Z,101748.00
2023-02-19T18:59:04.467Z,101739.28
2023-02-19T19:01:51.557Z,101749.72
2023-02-19T19:04:39.634Z,101744.53
2023-02-19T19:07:26.066Z,101743.72
2023-02-19T19:10:14.835Z,101751.78
2023-02-19T19:13:01.343Z,101747.44
2023-02-19T19:15:50.999Z,101741.31
2023-02-19T19:18:38.335Z,101749.25
2023-02-19T19:21:25.237Z,101751.88
2023-02-19T19:24:13.572Z,101756.31
2023-02-19T19:27:01.741Z,101758.88
2023-02-19T19:29:49.726Z,101759.78
2023-02-19T19:32:36.469Z,101765.06
2023-02-19T19:35:24.107Z,101765.09
2023-02-19T19:38:10.694Z,101773.06
2023-02-19T19:41:01.256Z,101757.44
2023-02-19T19:43:49.928Z,101754.91
2023-02-19T19:46:39.551Z,101750.38
2023-02-19T19:49:26.308Z,101746.09
2023-02-19T19:52:13.216Z,101749.63
2023-02-19T19:54:59.894Z,101749.59
2023-02-19T19:57:50.296Z,101749.47
2023-02-19T20:00:45.321Z,101750.28
2023-02-19T20:03:35.323Z,101748.50
2023-02-19T20:06:34.888Z,101747.50
2023-02-19T20:09:45.420Z,101740.38
2023-02-19T20:12:39.506Z,101752.59
2023-02-19T20:15:31.955Z,101746.78
2023-02-19T20:18:22.565Z,101751.34
2023-02-19T20:21:10.533Z,101756.63
2023-02-19T20:23:57.373Z,101752.09
2023-02-19T20:26:44.981Z,101758.28
2023-02-19T20:29:34.127Z,101753.84
2023-02-19T20:32:20.857Z,101752.06
2023-02-19T20:35:10.021Z,101757.16
2023-02-19T20:37:56.876Z,101763.34
2023-02-19T20:40:43.617Z,101765.22
2023-02-19T20:43:30.380Z,101770.38
2023-02-19T20:46:17.202Z,101765.16
2023-02-19T20:49:04.024Z,101767.75
2023-02-19T20:51:54.932Z,101761.59
2023-02-19T20:54:42.582Z,101769.53
2023-02-19T20:57:29.241Z,101766.94
2023-02-19T21:00:17.127Z,101764.41
2023-02-19T21:03:03.823Z,101767.19
2023-02-19T21:05:50.493Z,101769.91
2023-02-19T21:08:38.422Z,101767.41
2023-02-19T21:11:25.121Z,101769.97
2023-02-19T21:14:12.276Z,101770.03
2023-02-19T21:16:58.703Z,101761.19
2023-02-19T21:19:45.677Z,101771.69
2023-02-19T21:22:32.441Z,101757.91
2023-02-19T21:25:20.635Z,101751.78
2023-02-19T21:28:09.151Z,101745.53
2023-02-19T21:30:56.165Z,101736.78
2023-02-19T21:33:42.688Z,101737.66
2023-02-19T21:36:29.677Z,101729.72
2023-02-19T21:39:18.598Z,101722.53
2023-02-19T21:42:06.670Z,101728.72
2023-02-19T21:44:53.229Z,101721.53
2023-02-19T21:47:40.298Z,101707.44
2023-02-19T21:50:27.120Z,101706.50
2023-02-19T21:53:14.286Z,101710.91
2023-02-19T21:56:01.140Z,101704.72
2023-02-19T21:58:49.192Z,101706.44
2023-02-19T22:01:38.891Z,101701.31
2023-02-19T22:04:25.612Z,101702.25
2023-02-19T22:07:12.190Z,101694.47
2023-02-19T22:09:58.923Z,101696.19
2023-02-19T22:12:45.744Z,101687.53
2023-02-19T22:15:34.104Z,101670.94
2023-02-19T22:18:20.741Z,101682.25
2023-02-19T22:21:07.649Z,101655.06
2023-02-19T22:23:55.531Z,101668.28
2023-02-19T22:26:42.671Z,101666.44
2023-02-19T22:29:29.797Z,101675.16
2023-02-19T22:32:17.775Z,101675.97
2023-02-19T22:35:04.650Z,101682.88
2023-02-19T22:37:51.275Z,101680.22
2023-02-19T22:40:38.057Z,101676.72
2023-02-19T22:43:24.737Z,101678.44
2023-02-19T22:46:15.779Z,101682.75
2023-02-19T22:49:06.614Z,101686.19
2023-02-19T22:51:57.318Z,101692.56
2023-02-19T22:54:43.875Z,101698.81
2023-02-19T22:57:30.693Z,101698.97
2023-02-19T23:00:18.859Z,101713.09
2023-02-19T23:03:05.626Z,101698.25
2023-02-19T23:05:53.822Z,101695.72
2023-02-19T23:08:42.349Z,101690.47
2023-02-19T23:11:31.024Z,101684.47
2023-02-19T23:14:18.942Z,101688.03
2023-02-19T23:17:05.776Z,101671.44
2023-02-19T23:19:52.770Z,101675.97
2023-02-19T23:22:40.788Z,101665.53
2023-02-19T23:25:27.588Z,101668.22
2023-02-19T23:28:14.495Z,101658.56
2023-02-19T23:31:01.956Z,101653.38
2023-02-19T23:33:48.335Z,101656.84
2023-02-19T23:36:35.360Z,101648.97
2023-02-19T23:39:23.760Z,101649.84
2023-02-19T23:42:16.067Z,101644.63
2023-02-19T23:45:03.324Z,101627.03
2023-02-19T23:47:52.221Z,101644.59
2023-02-19T23:50:45.697Z,101633.19
2023-02-19T23:53:32.604Z,101623.56
2023-02-19T23:56:25.454Z,101638.47
2023-02-19T23:59:12.093Z,101633.22
